Time;durP1;ratioP1;P1;durP2;ratioP2;P2;SDS_P1;SDS_P2;PMS_P1;PMS_P2;Temp;Humidity;BMP_temperature;BMP_pressure;BME280_temperature;BME280_humidity;BME280_pressure;Samples;Min_cycle;Max_cycle;Signal;HPM_P1;HPM_P2
2022/05/09 00:02:11;;;;;;;12.75;11.82;;;11.30;99.90;;;12.28;87.51;98633.63;5195336;27;20209;-50
2022/05/09 00:04:44;;;;;;;14.00;12.90;;;11.30;99.90;;;12.26;87.66;98631.75;5195900;27;20326;-51
2022/05/09 00:07:18;;;;;;;14.15;13.05;;;11.30;99.90;;;12.17;88.29;98630.38;5189973;28;20194;-50
2022/05/09 00:09:51;;;;;;;13.65;12.63;;;11.20;99.90;;;12.13;88.50;98627.50;5198275;27;20646;-50
2022/05/09 00:12:24;;;;;;;13.95;12.85;;;11.20;99.90;;;12.12;88.45;98641.13;5188488;28;20235;-50
2022/05/09 00:14:58;;;;;;;14.60;13.30;;;11.20;99.90;;;11.94;88.50;98635.72;5199416;27;20244;-58
2022/05/09 00:17:32;;;;;;;13.70;12.63;;;11.10;99.90;;;11.90;89.48;98633.72;5195428;28;20619;-59
2022/05/09 00:20:07;;;;;;;13.50;12.40;;;11.00;99.90;;;11.96;88.97;98634.13;5190901;28;20300;-58
2022/05/09 00:22:45;;;;;;;13.52;12.52;;;11.00;99.90;;;11.95;88.78;98632.34;5194105;27;20654;-59
2022/05/09 00:25:22;;;;;;;13.82;12.82;;;11.10;99.90;;;11.93;89.12;98629.72;5194090;28;20199;-58
2022/05/09 00:27:55;;;;;;;14.20;12.88;;;11.10;99.90;;;11.94;88.08;98633.16;5193796;27;20625;-57
2022/05/09 00:30:29;;;;;;;13.95;12.90;;;11.00;99.90;;;11.87;88.66;98638.66;5194772;28;20225;-59
2022/05/09 00:33:04;;;;;;;13.65;12.65;;;11.00;99.90;;;11.84;88.49;98625.63;5188895;28;20226;-57
2022/05/09 00:35:37;;;;;;;13.90;12.68;;;10.90;99.90;;;11.81;88.77;98625.41;5189489;28;20237;-58
2022/05/09 00:38:10;;;;;;;14.27;13.27;;;10.90;99.90;;;11.79;88.89;98619.31;5192791;28;20292;-57
2022/05/09 00:41:28;;;;;;;14.43;13.23;;;10.90;99.90;;;11.73;89.43;98620.69;5200513;28;20626;-59
2022/05/09 00:43:39;;;;;;;15.05;13.85;;;10.80;99.90;;;11.70;89.92;98623.06;5188617;28;20741;-59
2022/05/09 00:46:12;;;;;;;14.70;13.40;;;10.80;99.90;;;11.65;90.00;98623.56;5193184;28;20711;-56
2022/05/09 00:48:46;;;;;;;15.43;14.10;;;10.80;99.90;;;11.63;90.73;98620.88;5193267;28;20281;-56
2022/05/09 00:51:25;;;;;;;14.68;13.50;;;10.90;99.90;;;11.68;91.29;98631.44;5193857;28;20317;-58
2022/05/09 00:54:02;;;;;;;15.15;13.93;;;10.90;99.90;;;11.61;92.25;98624.13;5186180;28;20289;-59
2022/05/09 00:56:41;;;;;;;15.30;14.20;;;10.80;99.90;;;11.61;91.67;98619.00;5194278;28;20330;-59
2022/05/09 00:59:17;;;;;;;14.43;13.25;;;10.80;99.90;;;11.59;91.44;98626.59;5204182;27;20247;-59
2022/05/09 01:01:50;;;;;;;16.05;14.65;;;10.80;99.90;;;11.65;91.50;98632.13;5190864;28;20701;-58
2022/05/09 01:04:28;;;;;;;14.75;13.65;;;10.80;99.90;;;11.63;91.38;98626.00;5188203;28;20666;-58
2022/05/09 01:07:01;;;;;;;14.98;13.77;;;10.80;99.90;;;11.59;91.51;98633.38;5188497;28;20191;-59
2022/05/09 01:09:34;;;;;;;14.68;13.68;;;10.80;99.90;;;11.57;91.30;98629.84;5192394;28;20297;-57
2022/05/09 01:12:11;;;;;;;13.18;12.10;;;10.70;99.90;;;11.61;89.71;98629.25;5190218;28;20293;-58
2022/05/09 01:14:45;;;;;;;13.15;12.25;;;10.70;99.90;;;11.54;89.39;98635.66;5189757;28;20226;-59
2022/05/09 01:17:21;;;;;;;13.95;12.95;;;10.60;99.90;;;11.47;89.33;98631.81;5190877;28;20761;-59
2022/05/09 01:19:59;;;;;;;13.65;12.63;;;10.50;99.90;;;11.38;89.36;98626.06;5187572;28;20234;-59
2022/05/09 01:22:37;;;;;;;13.43;12.43;;;10.50;99.90;;;11.37;88.86;98626.84;5195571;27;20227;-57
2022/05/09 01:25:14;;;;;;;13.32;12.32;;;10.50;99.90;;;11.32;88.94;98622.22;5203412;27;20628;-57
2022/05/09 01:27:48;;;;;;;14.00;12.98;;;10.40;99.90;;;11.30;88.60;98631.44;5187936;27;20226;-58
2022/05/09 01:30:25;;;;;;;13.98;12.98;;;10.40;99.90;;;11.25;88.77;98628.59;5194570;27;20314;-57
2022/05/09 01:33:05;;;;;;;14.52;13.40;;;10.40;99.90;;;11.23;89.40;98622.50;5198678;27;20225;-58
2022/05/09 01:35:45;;;;;;;13.93;12.82;;;10.40;99.90;;;11.18;89.80;98622.16;5188892;28;20240;-58
2022/05/09 01:38:27;;;;;;;13.20;12.30;;;10.40;99.90;;;11.16;89.79;98626.31;5190150;28;21762;-59
2022/05/09 01:41:01;;;;;;;14.45;13.30;;;10.30;99.90;;;11.12;90.38;98624.31;5189824;27;20697;-58
2022/05/09 01:43:37;;;;;;;14.60;13.50;;;10.30;99.90;;;11.10;91.07;98631.00;5201493;27;20210;-59
2022/05/09 01:46:14;;;;;;;15.45;14.15;;;10.30;99.90;;;11.08;90.52;98626.59;5198110;27;20364;-57
2022/05/09 01:51:40;;;;;;;15.10;14.00;;;10.20;99.90;;;11.04;89.91;98622.91;5190094;28;20302;-59
2022/05/09 01:54:16;;;;;;;14.35;13.15;;;10.20;99.90;;;10.98;90.71;98625.06;5199064;27;20233;-58
2022/05/09 01:56:49;;;;;;;13.50;12.45;;;10.10;99.90;;;10.98;90.54;98630.19;5186682;28;20202;-58
2022/05/09 01:59:23;;;;;;;13.23;12.15;;;10.10;99.90;;;10.98;90.36;98632.75;5195279;28;20206;-59
2022/05/09 02:01:59;;;;;;;13.85;12.75;;;10.10;99.90;;;10.97;89.96;98633.53;5190012;28;20244;-58
2022/05/09 02:04:34;;;;;;;13.93;12.93;;;10.10;99.90;;;10.92;90.65;98629.78;5189317;28;20205;-59
2022/05/09 02:07:09;;;;;;;13.87;12.77;;;10.10;99.90;;;10.90;90.75;98624.56;5189321;28;20210;-59
2022/05/09 02:09:46;;;;;;;14.90;13.60;;;10.00;99.90;;;10.87;90.22;98621.78;5190772;28;20218;-57
2022/05/09 02:12:21;;;;;;;13.02;11.93;;;9.90;99.90;;;10.79;89.92;98626.38;5191608;28;20309;-59
2022/05/09 02:14:54;;;;;;;13.23;12.15;;;9.90;99.90;;;10.76;89.91;98615.94;5193014;28;20292;-59
2022/05/09 02:17:29;;;;;;;15.13;13.88;;;9.90;99.90;;;10.73;91.28;98619.94;5192291;28;20297;-58
2022/05/09 02:20:02;;;;;;;15.43;14.13;;;9.90;99.90;;;10.72;90.80;98615.63;5188071;28;20236;-57
2022/05/09 02:22:36;;;;;;;14.85;13.57;;;9.90;99.90;;;10.74;90.95;98617.50;5192150;28;20202;-59
2022/05/09 02:27:58;;;;;;;15.30;14.00;;;9.90;99.90;;;10.69;91.23;98613.75;5190063;28;20255;-57
2022/05/09 02:30:31;;;;;;;15.87;14.47;;;9.90;99.90;;;10.72;91.16;98621.63;5201112;28;20286;-59
2022/05/09 02:33:04;;;;;;;15.47;14.17;;;9.90;99.90;;;10.72;91.29;98620.75;5196202;28;20247;-57
2022/05/09 02:35:39;;;;;;;15.27;14.07;;;9.90;99.90;;;10.68;91.68;98637.53;5192186;28;20301;-59
2022/05/09 02:38:12;;;;;;;14.52;13.43;;;9.90;99.90;;;10.72;91.08;98634.41;5197341;28;20229;-58
2022/05/09 02:40:47;;;;;;;13.90;12.77;;;9.80;99.90;;;10.66;91.00;98639.09;5188560;28;20219;-56
2022/05/09 02:43:20;;;;;;;14.70;13.60;;;9.90;99.90;;;10.59;91.09;98630.13;5189391;28;20237;-57
2022/05/09 02:45:55;;;;;;;15.00;13.70;;;9.80;99.90;;;10.45;92.10;98635.94;5185881;28;20285;-58
2022/05/09 02:48:29;;;;;;;14.67;13.47;;;9.70;99.90;;;10.38;91.43;98629.50;5195759;28;20661;-57
2022/05/09 02:51:02;;;;;;;14.53;13.40;;;9.60;99.90;;;10.41;91.66;98640.72;5216129;28;20222;-58
2022/05/09 02:53:36;;;;;;;14.67;13.47;;;9.60;99.90;;;10.42;91.62;98637.41;5192610;28;21006;-57
2022/05/09 02:56:11;;;;;;;14.33;13.23;;;9.60;99.90;;;10.40;90.95;98636.41;5199091;28;20229;-56
2022/05/09 02:58:44;;;;;;;15.60;14.37;;;9.50;99.90;;;10.33;91.64;98628.31;5204058;28;20285;-58
2022/05/09 03:01:17;;;;;;;15.93;14.63;;;9.50;99.90;;;10.20;92.29;98638.41;5187294;28;20308;-58
2022/05/09 03:06:41;;;;;;;16.57;15.20;;;9.50;99.90;;;10.28;92.31;98634.75;5206833;28;20289;-51
2022/05/09 03:09:14;;;;;;;17.00;15.60;;;9.50;99.90;;;10.28;92.40;98642.44;5208506;28;20255;-53
2022/05/09 03:11:49;;;;;;;15.83;14.57;;;9.50;99.90;;;10.30;93.22;98632.28;5194650;28;20752;-49
2022/05/09 03:14:22;;;;;;;16.80;15.30;;;9.60;99.90;;;10.34;92.93;98630.06;5194308;28;20240;-51
2022/05/09 03:16:55;;;;;;;18.37;16.77;;;9.60;99.90;;;10.32;93.78;98629.06;5228943;28;20202;-57
2022/05/09 03:19:28;;;;;;;17.10;15.70;;;9.60;99.90;;;10.35;94.90;98631.84;5213367;28;20685;-56
2022/05/09 03:22:01;;;;;;;18.87;17.13;;;9.60;99.90;;;10.34;95.08;98630.06;5201254;28;20227;-58
2022/05/09 03:24:35;;;;;;;16.53;15.23;;;9.60;99.90;;;10.37;94.61;98635.41;5191795;28;20329;-55
2022/05/09 03:27:12;;;;;;;16.07;14.87;;;9.60;99.90;;;10.42;92.76;98627.19;5207102;27;21020;-54
2022/05/09 03:29:45;;;;;;;14.80;13.63;;;9.60;99.90;;;10.40;92.23;98628.75;5211228;27;20574;-56
2022/05/09 03:32:18;;;;;;;14.93;13.73;;;9.50;99.90;;;10.31;92.05;98634.97;5191838;28;20280;-58
2022/05/09 03:34:51;;;;;;;14.23;13.03;;;9.50;99.90;;;10.29;92.36;98633.09;5191885;28;20297;-57
2022/05/09 03:37:24;;;;;;;14.50;13.40;;;9.50;99.90;;;10.31;90.86;98629.88;5204450;27;20298;-56
2022/05/09 03:39:58;;;;;;;15.70;14.50;;;9.50;99.90;;;10.33;90.99;98625.75;5196970;28;20305;-58
2022/05/09 03:42:32;;;;;;;15.83;14.57;;;9.50;99.90;;;10.27;91.37;98626.97;5201073;27;20213;-57
2022/05/09 03:45:08;;;;;;;16.50;15.10;;;9.40;99.90;;;10.23;92.36;98630.06;5194967;28;20221;-57
2022/05/09 03:47:41;;;;;;;14.07;13.00;;;9.40;99.90;;;10.21;91.60;98622.28;5221390;27;20198;-52
2022/05/09 03:50:15;;;;;;;14.73;13.53;;;9.40;99.90;;;10.23;92.00;98633.50;5212050;27;20231;-56
2022/05/09 03:52:51;;;;;;;15.67;14.37;;;9.40;99.90;;;10.10;91.79;98631.75;5190959;28;20329;-57
2022/05/09 03:55:24;;;;;;;16.07;14.60;;;9.30;99.90;;;10.07;93.24;98639.22;5200278;28;20281;-58
2022/05/09 03:57:58;;;;;;;15.87;14.53;;;9.30;99.90;;;10.15;92.33;98642.28;5196922;28;20286;-52
2022/05/09 04:00:35;;;;;;;17.43;15.93;;;9.40;99.90;;;10.20;93.18;98637.53;5196317;28;20266;-58
2022/05/09 04:03:08;;;;;;;16.57;15.20;;;9.50;99.90;;;10.23;92.68;98641.16;5220644;27;20649;-58
2022/05/09 04:05:42;;;;;;;15.77;14.47;;;9.50;99.90;;;10.14;93.51;98635.41;5204335;28;20206;-55
2022/05/09 04:08:20;;;;;;;16.87;15.47;;;9.40;99.90;;;10.21;93.24;98642.72;5213416;27;21610;-57
2022/05/09 04:10:55;;;;;;;16.33;15.03;;;9.50;99.90;;;10.19;93.42;98649.41;5211385;27;20214;-57
2022/05/09 04:13:29;;;;;;;15.87;14.47;;;9.50;99.90;;;10.18;92.90;98651.84;5191871;28;21179;-58
2022/05/09 04:18:56;;;;;;;16.20;14.90;;;9.30;99.90;;;9.98;92.99;98642.75;5190019;28;20230;-57
2022/05/09 04:21:30;;;;;;;15.53;14.33;;;9.20;99.90;;;10.00;93.05;98641.22;5189269;28;20218;-53
2022/05/09 04:24:04;;;;;;;16.83;15.43;;;9.20;99.90;;;10.07;92.98;98645.97;5193887;28;20255;-56
2022/05/09 04:26:38;;;;;;;16.67;15.27;;;9.30;99.90;;;10.16;93.42;98646.63;5192645;28;20229;-54
2022/05/09 04:29:12;;;;;;;17.10;15.70;;;9.40;99.90;;;10.20;94.34;98646.06;5192231;28;20289;-54
2022/05/09 04:31:45;;;;;;;17.73;16.23;;;9.50;99.90;;;10.25;94.40;98643.84;5190397;28;20667;-57
2022/05/09 04:34:18;;;;;;;16.97;15.57;;;9.60;99.90;;;10.36;94.55;98648.09;5187861;28;20270;-56
2022/05/09 04:36:51;;;;;;;17.20;15.70;;;9.70;99.90;;;10.48;94.02;98651.50;5189587;28;20238;-58
2022/05/09 04:39:25;;;;;;;16.90;15.43;;;9.80;99.90;;;10.54;94.03;98644.25;5189048;28;20616;-58
2022/05/09 04:41:58;;;;;;;17.23;15.60;;;9.80;99.90;;;10.58;93.18;98653.00;5200308;28;20281;-52
2022/05/09 04:44:32;;;;;;;16.95;15.55;;;9.90;99.90;;;10.64;93.80;98657.66;5197458;28;20372;-56
2022/05/09 04:47:05;;;;;;;15.90;14.60;;;9.90;99.90;;;10.68;93.17;98652.88;5197985;28;20664;-51
2022/05/09 04:49:38;;;;;;;16.10;14.80;;;9.90;99.90;;;10.70;93.09;98650.41;5200190;28;20283;-58
2022/05/09 04:52:12;;;;;;;14.43;13.33;;;10.00;99.90;;;10.79;92.46;98657.06;5195282;28;20312;-56
2022/05/09 04:54:45;;;;;;;17.50;16.10;;;10.00;99.90;;;10.83;92.61;98659.03;5196221;28;20240;-58
2022/05/09 04:57:18;;;;;;;16.75;15.40;;;10.10;99.90;;;10.94;92.20;98658.91;5195959;28;20227;-55
2022/05/09 04:59:52;;;;;;;16.83;15.52;;;10.10;99.90;;;11.00;92.66;98656.75;5198315;28;20268;-58
2022/05/09 05:02:26;;;;;;;16.63;15.32;;;10.20;99.90;;;11.07;92.88;98658.94;5191833;28;20468;-56
2022/05/09 05:04:59;;;;;;;16.05;14.55;;;10.30;99.90;;;11.21;92.37;98658.19;5202716;28;20206;-57
2022/05/09 05:07:32;;;;;;;17.17;15.73;;;10.40;99.90;;;11.30;91.75;98665.59;5200664;28;20237;-57
2022/05/09 05:10:08;;;;;;;15.90;14.50;;;10.50;99.90;;;11.37;91.55;98662.69;5202904;28;20681;-55
2022/05/09 05:12:41;;;;;;;15.60;14.30;;;10.50;99.90;;;11.60;89.50;98659.09;5198605;28;20214;-55
2022/05/09 05:15:17;;;;;;;15.25;14.15;;;10.70;99.90;;;11.84;88.83;98661.47;5202490;28;20242;-58
2022/05/09 05:17:50;;;;;;;14.48;13.32;;;11.00;99.90;;;12.40;87.30;98664.25;5202821;28;20237;-56
2022/05/09 05:20:24;;;;;;;13.95;12.75;;;11.50;99.90;;;12.95;84.45;98666.78;5203447;28;20597;-57
2022/05/09 05:22:58;;;;;;;13.75;12.73;;;12.00;99.90;;;13.49;81.71;98658.94;5203482;28;20250;-58
2022/05/09 05:25:31;;;;;;;14.20;13.00;;;12.50;99.90;;;14.08;79.32;98665.75;5196442;28;20670;-52
2022/05/09 05:28:05;;;;;;;12.13;11.23;;;13.00;99.90;;;14.62;76.25;98658.41;5197446;28;20230;-51
2022/05/09 05:30:40;;;;;;;13.63;12.57;;;13.50;99.90;;;15.04;73.78;98657.25;5203239;28;20273;-51
2022/05/09 05:33:14;;;;;;;13.45;12.52;;;13.80;99.90;;;15.38;72.44;98663.25;5203039;28;20716;-54
2022/05/09 05:35:47;;;;;;;12.05;11.15;;;14.10;99.90;;;15.75;70.45;98651.44;5203315;28;20292;-55
2022/05/09 05:38:20;;;;;;;13.20;12.10;;;14.40;99.90;;;16.12;69.33;98658.41;5200844;28;20202;-51
2022/05/09 05:40:58;;;;;;;13.05;12.05;;;14.60;99.90;;;16.47;67.42;98664.34;5199910;28;20302;-57
2022/05/09 05:43:31;;;;;;;12.48;11.55;;;15.00;99.90;;;16.32;68.02;98659.34;5202737;28;20262;-58
2022/05/09 05:46:05;;;;;;;12.38;11.48;;;14.90;99.90;;;16.39;68.28;98666.56;5202579;28;20573;-55
2022/05/09 05:48:39;;;;;;;13.45;12.45;;;14.90;99.90;;;16.57;68.48;98661.38;5202018;28;20197;-52
2022/05/09 05:51:14;;;;;;;12.23;11.32;;;15.10;99.90;;;16.96;68.46;98664.03;5202954;28;20753;-54
2022/05/09 05:53:47;;;;;;;12.40;11.50;;;15.40;99.90;;;17.46;66.30;98664.50;5191118;28;20634;-56
2022/05/09 05:56:21;;;;;;;13.20;12.13;;;15.80;99.90;;;17.54;65.69;98666.59;5203027;28;20274;-53
2022/05/09 05:58:54;;;;;;;12.40;11.43;;;15.80;99.90;;;17.70;64.03;98668.13;5197534;28;20213;-56
2022/05/09 06:01:28;;;;;;;12.32;11.38;;;16.00;99.90;;;18.21;62.82;98668.50;5202069;28;20256;-54
2022/05/09 06:04:01;;;;;;;11.15;10.25;;;16.20;99.90;;;18.55;61.52;98662.06;5202851;28;20204;-53
2022/05/09 06:06:35;;;;;;;12.23;11.18;;;16.50;99.90;;;18.93;60.35;98665.25;5203531;28;20289;-52
2022/05/09 06:09:09;;;;;;;11.98;11.07;;;16.80;99.90;;;19.24;59.33;98667.25;5201102;28;20224;-54
2022/05/09 06:11:44;;;;;;;11.32;10.52;;;17.00;99.90;;;19.49;57.90;98663.81;5203183;28;20718;-53
2022/05/09 06:14:17;;;;;;;11.80;10.80;;;17.20;99.90;;;19.55;58.39;98669.22;5194510;28;20665;-57
2022/05/09 06:16:51;;;;;;;11.60;10.77;;;17.30;99.90;;;19.79;57.09;98668.31;5200055;28;20210;-56
2022/05/09 06:19:24;;;;;;;11.73;10.93;;;17.70;99.90;;;20.10;56.77;98665.03;5202436;28;20668;-53
2022/05/09 06:21:58;;;;;;;11.15;10.35;;;17.70;99.90;;;20.02;56.55;98666.47;5201784;28;20232;-58
2022/05/09 06:24:31;;;;;;;11.57;10.73;;;17.60;99.90;;;20.14;56.26;98672.06;5202475;28;20658;-58
2022/05/09 06:27:05;;;;;;;11.02;10.23;;;17.90;99.90;;;20.58;56.01;98675.22;5201927;28;20242;-58
2022/05/09 06:29:44;;;;;;;10.95;10.10;;;18.20;99.90;;;20.46;54.95;98674.81;5198869;28;20222;-58
2022/05/09 06:32:25;;;;;;;11.10;10.30;;;18.30;99.90;;;20.48;54.56;98674.00;5197453;28;20202;-59
2022/05/09 06:35:01;;;;;;;11.00;10.20;;;18.30;99.90;;;20.55;54.22;98680.34;5202811;28;20625;-58
2022/05/09 06:37:35;;;;;;;10.57;9.70;;;18.60;99.90;;;20.57;54.68;98681.25;5201111;28;20858;-57
2022/05/09 06:40:11;;;;;;;11.27;10.50;;;18.50;99.90;;;20.79;54.09;98680.19;5202353;28;20252;-57
2022/05/09 06:42:46;;;;;;;10.13;9.43;;;18.60;99.90;;;21.09;54.22;98679.34;5201788;28;20379;-58
2022/05/09 06:45:20;;;;;;;10.15;9.43;;;19.00;99.90;;;21.22;53.48;98685.75;5194497;28;20633;-56
2022/05/09 06:47:56;;;;;;;10.13;9.38;;;19.20;99.90;;;21.67;51.76;98687.88;5201730;28;20241;-58
2022/05/09 06:50:34;;;;;;;9.82;9.10;;;19.80;99.90;;;22.24;50.88;98682.41;5200778;28;20222;-59
2022/05/09 06:53:09;;;;;;;10.40;9.70;;;20.20;99.90;;;22.41;49.78;98688.91;5196526;28;20210;-57
2022/05/09 06:55:51;;;;;;;10.48;9.75;;;20.40;98.70;;;22.37;49.24;98680.97;5201794;28;20250;-59
2022/05/09 06:58:25;;;;;;;10.50;9.70;;;20.50;98.40;;;22.37;49.75;98680.97;5201697;28;20644;-59
2022/05/09 07:00:59;;;;;;;9.73;9.00;;;20.60;98.50;;;22.63;49.77;98674.63;5205300;28;20745;-59
2022/05/09 07:03:34;;;;;;;10.38;9.57;;;20.70;98.30;;;22.91;49.17;98678.72;5205812;28;20582;-57
2022/05/09 07:06:07;;;;;;;9.82;8.93;;;20.80;98.20;;;22.89;48.98;98675.22;5203196;28;20625;-59
2022/05/09 07:08:42;;;;;;;8.95;8.20;;;21.00;98.00;;;23.28;48.18;98676.03;5205132;28;20305;-58
2022/05/09 07:11:15;;;;;;;8.98;8.20;;;21.30;97.30;;;23.54;48.11;98676.50;5204973;28;20225;-59
2022/05/09 07:13:55;;;;;;;8.70;8.00;;;21.60;97.30;;;23.92;46.61;98671.13;5205662;28;20210;-59
2022/05/09 07:16:29;;;;;;;9.25;8.55;;;22.10;96.20;;;23.72;46.58;98676.00;5205406;28;20233;-57
2022/05/09 07:19:05;;;;;;;9.80;9.00;;;21.90;95.60;;;23.65;47.12;98677.59;5204952;28;20229;-58
2022/05/09 07:21:38;;;;;;;8.93;8.25;;;21.90;96.10;;;23.92;46.05;98677.25;5196700;28;20233;-58
2022/05/09 07:24:12;;;;;;;9.30;8.50;;;21.70;96.10;;;24.15;46.21;98681.94;5204350;28;20221;-59
2022/05/09 07:26:45;;;;;;;9.10;8.40;;;21.80;96.50;;;24.33;46.31;98674.41;5205212;28;20228;-58
2022/05/09 07:29:18;;;;;;;8.60;8.00;;;22.10;96.20;;;24.58;45.21;98670.47;5202548;28;20333;-59
2022/05/09 07:31:51;;;;;;;8.52;7.93;;;22.40;95.20;;;24.90;45.17;98672.66;5204985;28;20314;-59
2022/05/09 07:34:25;;;;;;;8.95;8.35;;;22.60;95.50;;;25.10;43.29;98676.41;5204156;28;20209;-58
2022/05/09 07:36:58;;;;;;;7.20;6.70;;;22.60;94.60;;;25.17;44.65;98672.13;5205289;28;20235;-59
2022/05/09 07:39:31;;;;;;;7.57;7.07;;;22.80;95.00;;;25.47;42.93;98675.94;5204551;28;20270;-57
2022/05/09 07:42:06;;;;;;;7.85;7.25;;;23.20;94.00;;;25.14;43.47;98672.97;5204681;28;20289;-58
2022/05/09 07:44:39;;;;;;;8.00;7.40;;;22.90;94.10;;;25.67;41.82;98674.44;5205182;28;20300;-59
2022/05/09 07:47:12;;;;;;;7.38;6.78;;;23.10;93.40;;;26.12;41.46;98683.59;5204882;28;20297;-58
2022/05/09 07:49:47;;;;;;;7.63;7.05;;;23.30;93.40;;;26.22;41.47;98679.31;5198374;28;20305;-59
2022/05/09 07:52:20;;;;;;;7.93;7.32;;;23.60;93.10;;;26.20;39.98;98678.44;5199970;28;20213;-57
2022/05/09 07:54:53;;;;;;;7.28;6.75;;;24.00;91.70;;;26.25;40.58;98684.59;5204492;28;20756;-58
2022/05/09 07:57:27;;;;;;;7.20;6.65;;;24.10;92.00;;;26.36;40.57;98677.69;5203089;28;20730;-58
2022/05/09 08:00:00;;;;;;;7.25;6.57;;;24.50;91.40;;;26.01;41.17;98675.66;5204663;28;20784;-58
2022/05/09 08:02:34;;;;;;;7.53;6.97;;;24.50;91.20;;;25.90;42.13;98681.66;5204795;28;20330;-57
2022/05/09 08:05:10;;;;;;;7.20;6.70;;;24.40;91.20;;;25.76;41.08;98673.66;5204526;28;20190;-59
2022/05/09 08:07:43;;;;;;;7.55;7.05;;;24.30;90.60;;;25.78;41.53;98671.91;5204077;28;20246;-58
2022/05/09 08:10:17;;;;;;;6.95;6.43;;;24.20;91.00;;;26.06;40.65;98673.94;5202905;28;20312;-59
2022/05/09 08:12:52;;;;;;;6.90;6.40;;;24.50;90.40;;;26.06;40.86;98667.81;5192575;28;20596;-58
2022/05/09 08:15:27;;;;;;;7.32;6.72;;;24.80;90.10;;;25.78;40.93;98666.66;5199132;28;20340;-58
2022/05/09 08:18:01;;;;;;;7.63;7.03;;;24.70;89.70;;;25.46;41.24;98663.72;5204140;28;20720;-59
2022/05/09 08:20:37;;;;;;;8.05;7.50;;;24.40;89.90;;;25.38;42.27;98661.94;5204217;28;20229;-59
2022/05/09 08:23:15;;;;;;;7.30;6.80;;;24.00;90.80;;;25.60;41.70;98660.38;5204619;28;20229;-58
2022/05/09 08:25:50;;;;;;;7.55;6.88;;;24.30;90.50;;;25.74;42.03;98667.50;5204257;28;20229;-59
2022/05/09 08:28:25;;;;;;;7.90;7.30;;;24.30;90.60;;;25.59;41.19;98660.38;5197747;28;20232;-59
2022/05/09 08:30:58;;;;;;;7.72;7.13;;;24.30;90.30;;;25.38;42.39;98668.88;5201600;28;20714;-59
2022/05/09 08:33:31;;;;;;;7.35;6.82;;;24.20;90.50;;;25.61;42.04;98667.41;5204261;28;20202;-59
2022/05/09 08:36:09;;;;;;;7.47;6.88;;;24.50;90.40;;;25.32;41.04;98672.31;5204280;28;20229;-59
2022/05/09 08:38:42;;;;;;;7.80;7.10;;;24.60;88.20;;;25.38;42.46;98661.94;5204193;28;20204;-59
2022/05/09 08:41:20;;;;;;;7.82;7.22;;;24.50;90.50;;;25.55;41.15;98680.44;5203021;28;20308;-57
2022/05/09 08:44:11;;;;;;;8.10;7.50;;;24.40;88.90;;;25.35;41.15;98674.06;5196196;28;20770;-59
2022/05/09 08:46:58;;;;;;;7.88;7.28;;;24.20;88.60;;;25.24;41.94;98673.06;5218460;28;20198;-56
2022/05/09 08:49:43;;;;;;;7.18;6.53;;;24.10;89.60;;;25.34;42.36;98669.72;5197970;28;20308;-59
2022/05/09 08:52:24;;;;;;;7.05;6.55;;;24.30;90.40;;;25.17;42.31;98673.00;5204426;28;20593;-58
2022/05/09 08:54:57;;;;;;;6.90;6.47;;;24.30;89.80;;;25.40;42.01;98677.63;5200440;28;20210;-58
2022/05/09 08:57:38;;;;;;;7.70;6.95;;;24.40;90.20;;;25.68;41.42;98670.06;5200958;28;20627;-58
2022/05/09 09:00:15;;;;;;;7.57;6.88;;;24.80;89.50;;;25.59;41.90;98679.59;5204110;28;20225;-59
2022/05/09 09:02:59;;;;;;;7.80;7.10;;;24.70;90.00;;;25.52;42.16;98675.13;5203924;28;20205;-56
2022/05/09 09:05:36;;;;;;;7.18;6.68;;;24.80;89.10;;;25.57;42.93;98675.19;5203765;28;20284;-58
2022/05/09 09:08:21;;;;;;;7.07;6.53;;;24.90;90.00;;;25.79;41.49;98671.06;5203758;28;20197;-58
2022/05/09 09:11:08;;;;;;;7.60;7.05;;;24.90;88.90;;;25.64;41.73;98682.28;5202206;28;20222;-59
2022/05/09 09:13:57;;;;;;;7.78;6.93;;;24.90;88.00;;;25.61;41.55;98669.13;5203565;28;20347;-59
2022/05/09 09:16:50;;;;;;;7.45;6.85;;;24.50;89.50;;;25.52;42.79;98669.03;5197644;28;20652;-58
2022/05/09 09:19:42;;;;;;;7.32;6.82;;;24.60;90.00;;;25.72;40.64;98666.63;5196213;28;20265;-58
2022/05/09 09:22:32;;;;;;;7.70;7.10;;;24.90;86.70;;;25.43;40.69;98669.81;5202826;28;20301;-59
2022/05/09 09:25:28;;;;;;;6.80;6.30;;;24.70;86.00;;;25.61;40.14;98666.50;5202193;28;20208;-59
2022/05/09 09:28:06;;;;;;;7.15;6.55;;;24.80;85.40;;;25.56;42.16;98666.47;5198202;28;20289;-59
2022/05/09 09:30:41;;;;;;;7.03;6.53;;;24.80;88.90;;;25.68;41.29;98660.47;5203481;28;20262;-59
2022/05/09 09:33:19;;;;;;;6.20;5.80;;;25.00;86.30;;;25.99;39.35;98663.41;5201915;28;20641;-58
2022/05/09 09:35:57;;;;;;;6.70;6.20;;;25.40;84.10;;;26.06;38.88;98663.47;5203326;28;20250;-57
2022/05/09 09:38:41;;;;;;;7.18;6.68;;;25.40;83.80;;;26.05;37.89;98664.34;5202031;28;20305;-57
2022/05/09 09:41:23;;;;;;;6.78;6.28;;;25.40;81.90;;;25.83;38.33;98665.00;5203351;28;20601;-58
2022/05/09 09:44:02;;;;;;;7.65;6.90;;;25.00;82.80;;;24.99;39.53;98650.97;5201696;28;20329;-59
2022/05/09 09:47:02;;;;;;;7.75;7.05;;;24.40;83.40;;;24.48;41.01;98655.50;5197408;28;20629;-58
2022/05/09 09:49:39;;;;;;;7.15;6.63;;;23.80;85.60;;;24.04;41.95;98664.38;5195526;28;20306;-58
2022/05/09 09:52:20;;;;;;;7.00;6.53;;;23.20;87.40;;;24.07;42.22;98653.13;5202056;28;20201;-58
2022/05/09 09:54:57;;;;;;;7.32;6.80;;;23.30;87.30;;;24.11;41.90;98651.41;5193782;28;20274;-59
2022/05/09 09:57:36;;;;;;;6.93;6.43;;;23.40;86.70;;;24.37;41.12;98659.66;5187790;28;20194;-59
2022/05/09 10:00:19;;;;;;;6.38;5.88;;;23.60;85.60;;;24.55;40.56;98644.25;5189021;28;20217;-59
2022/05/09 10:02:54;;;;;;;6.95;6.45;;;23.90;85.50;;;24.94;41.89;98649.16;5197017;27;20293;-59
2022/05/09 10:05:34;;;;;;;7.60;6.90;;;24.30;86.90;;;25.22;39.46;98651.28;5196904;28;20544;-59
2022/05/09 10:08:24;;;;;;;6.90;6.30;;;24.60;82.20;;;25.60;38.17;98644.69;5191423;28;20290;-58
2022/05/09 10:11:05;;;;;;;7.28;6.57;;;24.90;81.70;;;25.86;37.83;98644.06;5193731;28;20308;-55
2022/05/09 10:13:44;;;;;;;6.75;6.25;;;25.20;80.60;;;26.00;36.98;98641.56;5189373;28;20309;-54
2022/05/09 10:16:28;;;;;;;6.57;6.10;;;25.40;79.00;;;25.89;38.07;98630.13;5194512;28;20220;-51
2022/05/09 10:19:04;;;;;;;6.80;6.18;;;25.30;81.40;;;25.63;36.82;98644.69;5187202;28;20206;-54
2022/05/09 10:24:48;;;;;;;6.38;5.97;;;24.50;79.80;;;24.82;38.79;98630.69;5194322;28;20205;-59
2022/05/09 10:27:32;;;;;;;7.15;6.55;;;24.10;81.80;;;24.78;38.81;98621.06;5185043;28;20289;-50
2022/05/09 10:30:30;;;;;;;6.75;6.25;;;24.10;81.70;;;24.84;38.84;98635.94;5196057;28;20692;-52
2022/05/09 10:33:10;;;;;;;6.47;5.97;;;24.00;82.40;;;24.34;38.78;98631.75;5197683;28;20251;-51
2022/05/09 10:35:51;;;;;;;6.45;5.88;;;23.60;81.40;;;24.55;38.86;98622.47;5194257;28;20206;-52
2022/05/09 10:38:36;;;;;;;7.20;6.68;;;23.70;81.80;;;24.58;39.71;98628.66;5195305;28;20277;-53
2022/05/09 10:41:17;;;;;;;6.65;6.15;;;23.90;82.30;;;24.83;40.08;98621.97;5194062;28;20245;-52
2022/05/09 10:43:56;;;;;;;7.15;6.57;;;23.90;83.80;;;24.73;39.67;98621.00;5198282;28;20210;-53
2022/05/09 10:46:41;;;;;;;6.63;6.22;;;24.10;82.90;;;25.07;37.71;98623.16;5199244;28;20288;-53
2022/05/09 10:49:29;;;;;;;6.40;5.85;;;24.40;80.00;;;24.94;38.72;98619.50;5203280;28;20198;-58
2022/05/09 10:52:18;;;;;;;6.47;6.07;;;24.20;81.10;;;24.94;38.72;98614.28;5202167;28;20240;-55
2022/05/09 10:54:56;;;;;;;6.70;6.00;;;24.20;81.60;;;24.72;37.46;98611.41;5202227;28;20292;-54
2022/05/09 10:57:36;;;;;;;6.30;5.80;;;24.00;80.70;;;24.58;36.60;98612.06;5200734;28;20537;-54
2022/05/09 11:00:21;;;;;;;5.97;5.47;;;23.80;78.40;;;24.40;38.16;98615.28;5199068;28;20305;-55
2022/05/09 11:03:07;;;;;;;6.60;6.00;;;23.70;79.30;;;24.36;38.04;98613.47;5198422;28;20202;-54
2022/05/09 11:06:02;;;;;;;7.00;6.50;;;23.80;80.30;;;24.31;38.45;98612.53;5201919;28;20657;-54